sensor_id;sensor_type;location;lat;lon;timestamp;pressure;altitude;pressure_sealevel;temperature;humidity
69257;BME280;56376;53.356;-1.748;2024-02-21T00:00:42;99555.53;;;7.91;100.00
69257;BME280;56376;53.356;-1.748;2024-02-21T00:03:08;99549.53;;;7.89;100.00
69257;BME280;56376;53.356;-1.748;2024-02-21T00:05:33;99552.97;;;7.89;100.00
69257;BME280;56376;53.356;-1.748;2024-02-21T00:07:59;99546.06;;;7.88;100.00
69257;BME280;56376;53.356;-1.748;2024-02-21T00:10:25;99537.41;;;7.88;100.00
69257;BME280;56376;53.356;-1.748;2024-02-21T00:12:51;99523.59;;;7.86;100.00
69257;BME280;56376;53.356;-1.748;2024-02-21T00:15:17;99515.03;;;7.82;100.00
69257;BME280;56376;53.356;-1.748;2024-02-21T00:17:46;99525.41;;;7.82;100.00
69257;BME280;56376;53.356;-1.748;2024-02-21T00:20:11;99528.03;;;7.80;100.00
69257;BME280;56376;53.356;-1.748;2024-02-21T00:22:37;99527.19;;;7.80;100.00
69257;BME280;56376;53.356;-1.748;2024-02-21T00:25:03;99524.69;;;7.77;100.00
69257;BME280;56376;53.356;-1.748;2024-02-21T00:27:28;99532.47;;;7.77;100.00
69257;BME280;56376;53.356;-1.748;2024-02-21T00:29:54;99524.72;;;7.75;100.00
69257;BME280;56376;53.356;-1.748;2024-02-21T00:32:19;99522.16;;;7.74;100.00
69257;BME280;56376;53.356;-1.748;2024-02-21T00:34:46;99513.47;;;7.75;100.00
69257;BME280;56376;53.356;-1.748;2024-02-21T00:37:11;99510.84;;;7.75;100.00
69257;BME280;56376;53.356;-1.748;2024-02-21T00:39:37;99511.69;;;7.75;100.00
69257;BME280;56376;53.356;-1.748;2024-02-21T00:42:02;99498.69;;;7.77;100.00
69257;BME280;56376;53.356;-1.748;2024-02-21T00:44:28;99497.75;;;7.79;100.00
69257;BME280;56376;53.356;-1.748;2024-02-21T00:46:53;99501.09;;;7.83;100.00
69257;BME280;56376;53.356;-1.748;2024-02-21T00:49:19;99507.13;;;7.85;100.00
69257;BME280;56376;53.356;-1.748;2024-02-21T00:51:45;99507.09;;;7.87;100.00
69257;BME280;56376;53.356;-1.748;2024-02-21T00:54:10;99494.09;;;7.87;100.00
69257;BME280;56376;53.356;-1.748;2024-02-21T00:56:36;99488.00;;;7.88;100.00
69257;BME280;56376;53.356;-1.748;2024-02-21T00:59:01;99491.41;;;7.90;100.00
69257;BME280;56376;53.356;-1.748;2024-02-21T01:01:26;99472.31;;;7.91;100.00
69257;BME280;56376;53.356;-1.748;2024-02-21T01:03:52;99453.31;;;7.89;100.00
69257;BME280;56376;53.356;-1.748;2024-02-21T01:06:19;99458.44;;;7.90;100.00
69257;BME280;56376;53.356;-1.748;2024-02-21T01:08:46;99461.91;;;7.91;100.00
69257;BME280;56376;53.356;-1.748;2024-02-21T01:11:13;99455.81;;;7.92;100.00
69257;BME280;56376;53.356;-1.748;2024-02-21T01:13:39;99445.44;;;7.90;100.00
69257;BME280;56376;53.356;-1.748;2024-02-21T01:16:04;99448.91;;;7.91;100.00
69257;BME280;56376;53.356;-1.748;2024-02-21T01:18:34;99437.72;;;7.89;100.00
69257;BME280;56376;53.356;-1.748;2024-02-21T01:21:00;99425.50;;;7.91;100.00
69257;BME280;56376;53.356;-1.748;2024-02-21T01:23:26;99425.50;;;7.91;100.00
69257;BME280;56376;53.356;-1.748;2024-02-21T01:25:51;99432.41;;;7.92;100.00
69257;BME280;56376;53.356;-1.748;2024-02-21T01:28:18;99422.84;;;7.92;100.00
69257;BME280;56376;53.356;-1.748;2024-02-21T01:30:43;99412.47;;;7.92;100.00
69257;BME280;56376;53.356;-1.748;2024-02-21T01:33:09;99402.97;;;7.91;100.00
69257;BME280;56376;53.356;-1.748;2024-02-21T01:35:35;99386.44;;;7.92;100.00
69257;BME280;56376;53.356;-1.748;2024-02-21T01:38:01;99370.81;;;7.94;100.00
69257;BME280;56376;53.356;-1.748;2024-02-21T01:40:27;99354.31;;;7.95;100.00
69257;BME280;56376;53.356;-1.748;2024-02-21T01:42:55;99341.28;;;7.95;100.00
69257;BME280;56376;53.356;-1.748;2024-02-21T01:45:21;99324.78;;;7.96;100.00
69257;BME280;56376;53.356;-1.748;2024-02-21T01:47:48;99329.13;;;7.95;100.00
69257;BME280;56376;53.356;-1.748;2024-02-21T01:50:14;99336.91;;;7.97;100.00
69257;BME280;56376;53.356;-1.748;2024-02-21T01:52:41;99332.56;;;7.97;100.00
69257;BME280;56376;53.356;-1.748;2024-02-21T01:55:10;99329.97;;;7.96;100.00
69257;BME280;56376;53.356;-1.748;2024-02-21T01:57:36;99331.72;;;7.97;100.00
69257;BME280;56376;53.356;-1.748;2024-02-21T02:00:02;99319.56;;;7.96;100.00
69257;BME280;56376;53.356;-1.748;2024-02-21T02:02:28;99322.16;;;7.97;100.00
69257;BME280;56376;53.356;-1.748;2024-02-21T02:04:54;99328.19;;;7.98;100.00
69257;BME280;56376;53.356;-1.748;2024-02-21T02:07:20;99311.78;;;7.96;100.00
69257;BME280;56376;53.356;-1.748;2024-02-21T02:09:45;99312.69;;;7.95;100.00
69257;BME280;56376;53.356;-1.748;2024-02-21T02:12:11;99309.25;;;7.94;100.00
69257;BME280;56376;53.356;-1.748;2024-02-21T02:14:36;99307.47;;;7.95;100.00
69257;BME280;56376;53.356;-1.748;2024-02-21T02:17:02;99298.88;;;7.93;100.00
69257;BME280;56376;53.356;-1.748;2024-02-21T02:19:27;99293.66;;;7.93;100.00
69257;BME280;56376;53.356;-1.748;2024-02-21T02:22:00;99288.44;;;7.94;100.00
69257;BME280;56376;53.356;-1.748;2024-02-21T02:24:30;99295.28;;;7.97;100.00
69257;BME280;56376;53.356;-1.748;2024-02-21T02:26:56;99282.31;;;7.95;100.00
69257;BME280;56376;53.356;-1.748;2024-02-21T02:29:21;99279.78;;;7.94;100.00
69257;BME280;56376;53.356;-1.748;2024-02-21T02:31:48;99267.56;;;7.96;100.00
69257;BME280;56376;53.356;-1.748;2024-02-21T02:34:14;99258.06;;;7.95;100.00
69257;BME280;56376;53.356;-1.748;2024-02-21T02:36:40;99265.88;;;7.95;100.00
69257;BME280;56376;53.356;-1.748;2024-02-21T02:39:05;99248.56;;;7.94;100.00
69257;BME280;56376;53.356;-1.748;2024-02-21T02:41:35;99236.34;;;7.96;100.00
69257;BME280;56376;53.356;-1.748;2024-02-21T02:44:00;99230.28;;;7.97;100.00
69257;BME280;56376;53.356;-1.748;2024-02-21T02:46:26;99230.19;;;7.98;100.00
69257;BME280;56376;53.356;-1.748;2024-02-21T02:48:51;99223.19;;;8.02;100.00
69257;BME280;56376;53.356;-1.748;2024-02-21T02:51:17;99201.56;;;8.00;100.00
69257;BME280;56376;53.356;-1.748;2024-02-21T02:53:43;99197.09;;;8.03;100.00
69257;BME280;56376;53.356;-1.748;2024-02-21T02:56:14;99191.84;;;8.05;100.00
69257;BME280;56376;53.356;-1.748;2024-02-21T02:58:39;99179.69;;;8.06;100.00
69257;BME280;56376;53.356;-1.748;2024-02-21T03:01:06;99164.06;;;8.07;100.00
69257;BME280;56376;53.356;-1.748;2024-02-21T03:03:32;99168.34;;;8.08;100.00
69257;BME280;56376;53.356;-1.748;2024-02-21T03:05:57;99156.16;;;8.10;100.00
69257;BME280;56376;53.356;-1.748;2024-02-21T03:08:23;99148.25;;;8.13;100.00
69257;BME280;56376;53.356;-1.748;2024-02-21T03:10:48;99133.56;;;8.11;100.00
69257;BME280;56376;53.356;-1.748;2024-02-21T03:13:14;99124.00;;;8.11;100.00
69257;BME280;56376;53.356;-1.748;2024-02-21T03:15:39;99121.38;;;8.13;100.00
69257;BME280;56376;53.356;-1.748;2024-02-21T03:18:05;99111.81;;;8.13;100.00
69257;BME280;56376;53.356;-1.748;2024-02-21T03:20:31;99097.13;;;8.12;100.00
69257;BME280;56376;53.356;-1.748;2024-02-21T03:22:56;99106.63;;;8.13;100.00
69257;BME280;56376;53.356;-1.748;2024-02-21T03:25:21;99110.13;;;8.12;100.00
69257;BME280;56376;53.356;-1.748;2024-02-21T03:27:47;99086.72;;;8.12;100.00
69257;BME280;56376;53.356;-1.748;2024-02-21T03:30:13;99078.00;;;8.13;100.00
69257;BME280;56376;53.356;-1.748;2024-02-21T03:32:38;99058.09;;;8.12;100.00
69257;BME280;56376;53.356;-1.748;2024-02-21T03:35:05;99046.84;;;8.12;100.00
69257;BME280;56376;53.356;-1.748;2024-02-21T03:37:30;99046.78;;;8.13;100.00
69257;BME280;56376;53.356;-1.748;2024-02-21T03:39:56;99040.69;;;8.14;100.00
69257;BME280;56376;53.356;-1.748;2024-02-21T03:42:21;99032.94;;;8.13;100.00
69257;BME280;56376;53.356;-1.748;2024-02-21T03:44:46;99017.31;;;8.13;100.00
69257;BME280;56376;53.356;-1.748;2024-02-21T03:47:12;99012.16;;;8.11;100.00
69257;BME280;56376;53.356;-1.748;2024-02-21T03:49:37;99003.47;;;8.12;100.00
69257;BME280;56376;53.356;-1.748;2024-02-21T03:52:03;98987.03;;;8.12;100.00
69257;BME280;56376;53.356;-1.748;2024-02-21T03:54:29;98984.41;;;8.12;100.00
69257;BME280;56376;53.356;-1.748;2024-02-21T03:56:54;98986.06;;;8.14;100.00
69257;BME280;56376;53.356;-1.748;2024-02-21T03:59:21;98979.09;;;8.15;100.00
69257;BME280;56376;53.356;-1.748;2024-02-21T04:01:51;98962.72;;;8.11;100.00
69257;BME280;56376;53.356;-1.748;2024-02-21T04:04:17;98962.72;;;8.11;100.00
69257;BME280;56376;53.356;-1.748;2024-02-21T04:06:47;98964.50;;;8.11;100.00
69257;BME280;56376;53.356;-1.748;2024-02-21T04:09:13;98960.09;;;8.13;100.00
69257;BME280;56376;53.356;-1.748;2024-02-21T04:11:38;98954.88;;;8.13;100.00
69257;BME280;56376;53.356;-1.748;2024-02-21T04:14:04;98952.31;;;8.11;100.00
69257;BME280;56376;53.356;-1.748;2024-02-21T04:16:29;98935.03;;;8.10;100.00
69257;BME280;56376;53.356;-1.748;2024-02-21T04:18:55;98921.06;;;8.13;100.00
69257;BME280;56376;53.356;-1.748;2024-02-21T04:21:20;98926.22;;;8.14;100.00
69257;BME280;56376;53.356;-1.748;2024-02-21T04:23:46;98923.63;;;8.14;100.00
69257;BME280;56376;53.356;-1.748;2024-02-21T04:26:11;98919.31;;;8.13;100.00
69257;BME280;56376;53.356;-1.748;2024-02-21T04:28:37;98920.22;;;8.12;100.00
69257;BME280;56376;53.356;-1.748;2024-02-21T04:31:03;98914.22;;;8.10;100.00
69257;BME280;56376;53.356;-1.748;2024-02-21T04:33:28;98895.97;;;8.12;100.00
69257;BME280;56376;53.356;-1.748;2024-02-21T04:35:54;98903.69;;;8.13;100.00
69257;BME280;56376;53.356;-1.748;2024-02-21T04:38:20;98889.00;;;8.12;100.00
69257;BME280;56376;53.356;-1.748;2024-02-21T04:40:46;98885.56;;;8.12;100.00
69257;BME280;56376;53.356;-1.748;2024-02-21T04:43:11;98872.59;;;8.10;100.00
69257;BME280;56376;53.356;-1.748;2024-02-21T04:45:37;98868.31;;;8.09;100.00
69257;BME280;56376;53.356;-1.748;2024-02-21T04:48:03;98863.97;;;8.10;100.00
69257;BME280;56376;53.356;-1.748;2024-02-21T04:50:28;98861.34;;;8.10;100.00
69257;BME280;56376;53.356;-1.748;2024-02-21T04:52:54;98863.13;;;8.09;100.00
69257;BME280;56376;53.356;-1.748;2024-02-21T04:55:19;98856.16;;;8.10;100.00
69257;BME280;56376;53.356;-1.748;2024-02-21T04:57:45;98844.94;;;8.08;100.00
69257;BME280;56376;53.356;-1.748;2024-02-21T05:00:10;98826.69;;;8.09;100.00
69257;BME280;56376;53.356;-1.748;2024-02-21T05:02:36;98823.19;;;8.10;100.00
69257;BME280;56376;53.356;-1.748;2024-02-21T05:05:01;98813.69;;;8.09;100.00
69257;BME280;56376;53.356;-1.748;2024-02-21T05:07:27;98798.97;;;8.08;100.00
69257;BME280;56376;53.356;-1.748;2024-02-21T05:09:53;98792.81;;;8.11;100.00
69257;BME280;56376;53.356;-1.748;2024-02-21T05:12:18;98786.03;;;8.07;100.00
69257;BME280;56376;53.356;-1.748;2024-02-21T05:14:44;98780.78;;;8.08;100.00
69257;BME280;56376;53.356;-1.748;2024-02-21T05:17:09;98771.22;;;8.09;100.00
69257;BME280;56376;53.356;-1.748;2024-02-21T05:19:35;98765.97;;;8.10;100.00
69257;BME280;56376;53.356;-1.748;2024-02-21T05:22:00;98753.88;;;8.09;100.00
69257;BME280;56376;53.356;-1.748;2024-02-21T05:24:26;98752.22;;;8.07;100.00
69257;BME280;56376;53.356;-1.748;2024-02-21T05:26:51;98728.88;;;8.05;100.00
69257;BME280;56376;53.356;-1.748;2024-02-21T05:29:17;98732.28;;;8.07;100.00
69257;BME280;56376;53.356;-1.748;2024-02-21T05:31:54;98718.41;;;8.07;100.00
69257;BME280;56376;53.356;-1.748;2024-02-21T05:34:21;98711.34;;;8.10;100.00
69257;BME280;56376;53.356;-1.748;2024-02-21T05:36:47;98703.56;;;8.09;100.00
69257;BME280;56376;53.356;-1.748;2024-02-21T05:39:13;98695.84;;;8.07;100.00
69257;BME280;56376;53.356;-1.748;2024-02-21T05:41:39;98680.28;;;8.06;100.00
69257;BME280;56376;53.356;-1.748;2024-02-21T05:44:06;98680.38;;;8.04;100.00
69257;BME280;56376;53.356;-1.748;2024-02-21T05:46:31;98669.91;;;8.06;100.00
69257;BME280;56376;53.356;-1.748;2024-02-21T05:48:57;98663.84;;;8.05;100.00
69257;BME280;56376;53.356;-1.748;2024-02-21T05:51:22;98648.25;;;8.05;100.00
69257;BME280;56376;53.356;-1.748;2024-02-21T05:53:48;98650.84;;;8.05;100.00
69257;BME280;56376;53.356;-1.748;2024-02-21T05:56:14;98644.84;;;8.03;100.00
69257;BME280;56376;53.356;-1.748;2024-02-21T05:58:40;98632.63;;;8.05;100.00
69257;BME280;56376;53.356;-1.748;2024-02-21T06:01:06;98632.69;;;8.03;100.00
69257;BME280;56376;53.356;-1.748;2024-02-21T06:03:34;98610.16;;;8.04;100.00
69257;BME280;56376;53.356;-1.748;2024-02-21T06:06:00;98610.16;;;8.04;100.00
69257;BME280;56376;53.356;-1.748;2024-02-21T06:08:26;98603.25;;;8.03;100.00
69257;BME280;56376;53.356;-1.748;2024-02-21T06:10:51;98592.00;;;8.02;100.00
69257;BME280;56376;53.356;-1.748;2024-02-21T06:13:25;98578.03;;;8.05;100.00
69257;BME280;56376;53.356;-1.748;2024-02-21T06:15:51;98589.44;;;8.01;100.00
69257;BME280;56376;53.356;-1.748;2024-02-21T06:18:20;98574.91;;;7.97;100.00
69257;BME280;56376;53.356;-1.748;2024-02-21T06:20:46;98569.50;;;8.01;100.00
69257;BME280;56376;53.356;-1.748;2024-02-21T06:23:12;98574.91;;;7.97;100.00
69257;BME280;56376;53.356;-1.748;2024-02-21T06:25:38;98576.75;;;7.93;100.00
69257;BME280;56376;53.356;-1.748;2024-02-21T06:28:04;98570.59;;;7.96;100.00
69257;BME280;56376;53.356;-1.748;2024-02-21T06:30:30;98555.13;;;7.93;100.00
69257;BME280;56376;53.356;-1.748;2024-02-21T06:32:55;98551.69;;;7.92;100.00
69257;BME280;56376;53.356;-1.748;2024-02-21T06:35:21;98543.09;;;7.90;100.00
69257;BME280;56376;53.356;-1.748;2024-02-21T06:37:47;98538.94;;;7.86;100.00
69257;BME280;56376;53.356;-1.748;2024-02-21T06:40:16;98537.22;;;7.85;100.00
69257;BME280;56376;53.356;-1.748;2024-02-21T06:42:42;98524.38;;;7.82;100.00
69257;BME280;56376;53.356;-1.748;2024-02-21T06:45:07;98503.56;;;7.82;100.00
69257;BME280;56376;53.356;-1.748;2024-02-21T06:47:33;98503.69;;;7.79;100.00
69257;BME280;56376;53.356;-1.748;2024-02-21T06:49:58;98501.03;;;7.80;100.00
69257;BME280;56376;53.356;-1.748;2024-02-21T06:52:24;98494.06;;;7.81;100.00
69257;BME280;56376;53.356;-1.748;2024-02-21T06:54:50;98483.09;;;7.74;100.00
69257;BME280;56376;53.356;-1.748;2024-02-21T06:57:16;98478.72;;;7.75;100.00
69257;BME280;56376;53.356;-1.748;2024-02-21T06:59:42;98459.03;;;7.69;100.00
69257;BME280;56376;53.356;-1.748;2024-02-21T07:02:07;98454.81;;;7.67;100.00
69257;BME280;56376;53.356;-1.748;2024-02-21T07:04:34;98454.03;;;7.65;100.00
69257;BME280;56376;53.356;-1.748;2024-02-21T07:07:00;98459.38;;;7.62;100.00
69257;BME280;56376;53.356;-1.748;2024-02-21T07:09:26;98451.63;;;7.60;100.00
69257;BME280;56376;53.356;-1.748;2024-02-21T07:11:54;98444.00;;;7.55;100.00
69257;BME280;56376;53.356;-1.748;2024-02-21T07:14:19;98432.84;;;7.53;100.00
69257;BME280;56376;53.356;-1.748;2024-02-21T07:16:44;98419.06;;;7.51;100.00
69257;BME280;56376;53.356;-1.748;2024-02-21T07:19:10;98413.22;;;7.46;100.00
69257;BME280;56376;53.356;-1.748;2024-02-21T07:21:35;98412.31;;;7.47;100.00
69257;BME280;56376;53.356;-1.748;2024-02-21T07:24:03;98399.56;;;7.41;100.00
69257;BME280;56376;53.356;-1.748;2024-02-21T07:26:31;98384.03;;;7.40;100.00
69257;BME280;56376;53.356;-1.748;2024-02-21T07:28:56;98366.78;;;7.39;100.00
69257;BME280;56376;53.356;-1.748;2024-02-21T07:31:21;98363.41;;;7.36;100.00
69257;BME280;56376;53.356;-1.748;2024-02-21T07:33:47;98371.06;;;7.40;100.00
69257;BME280;56376;53.356;-1.748;2024-02-21T07:36:15;98363.44;;;7.35;100.00
69257;BME280;56376;53.356;-1.748;2024-02-21T07:38:41;98373.78;;;7.36;100.00
69257;BME280;56376;53.356;-1.748;2024-02-21T07:41:07;98351.38;;;7.34;100.00
69257;BME280;56376;53.356;-1.748;2024-02-21T07:43:32;98346.19;;;7.34;100.00
69257;BME280;56376;53.356;-1.748;2024-02-21T07:45:58;98331.38;;;7.36;100.00
69257;BME280;56376;53.356;-1.748;2024-02-21T07:48:23;98322.66;;;7.37;100.00
69257;BME280;56376;53.356;-1.748;2024-02-21T07:50:52;98307.91;;;7.37;100.00
69257;BME280;56376;53.356;-1.748;2024-02-21T07:53:17;98306.25;;;7.36;100.00
69257;BME280;56376;53.356;-1.748;2024-02-21T07:55:43;98305.47;;;7.34;100.00
69257;BME280;56376;53.356;-1.748;2024-02-21T07:58:08;98295.06;;;7.34;100.00
69257;BME280;56376;53.356;-1.748;2024-02-21T08:00:34;98285.47;;;7.36;100.00
69257;BME280;56376;53.356;-1.748;2024-02-21T08:02:59;98290.78;;;7.33;100.00
69257;BME280;56376;53.356;-1.748;2024-02-21T08:05:25;98285.59;;;7.33;100.00
69257;BME280;56376;53.356;-1.748;2024-02-21T08:07:50;98277.81;;;7.33;100.00
69257;BME280;56376;53.356;-1.748;2024-02-21T08:10:16;98264.81;;;7.33;100.00
69257;BME280;56376;53.356;-1.748;2024-02-21T08:12:41;98246.69;;;7.32;100.00
69257;BME280;56376;53.356;-1.748;2024-02-21T08:15:08;98242.34;;;7.32;100.00
69257;BME280;56376;53.356;-1.748;2024-02-21T08:17:36;98237.97;;;7.33;100.00
69257;BME280;56376;53.356;-1.748;2024-02-21T08:20:02;98221.56;;;7.32;100.00
69257;BME280;56376;53.356;-1.748;2024-02-21T08:22:28;98221.41;;;7.35;100.00
69257;BME280;56376;53.356;-1.748;2024-02-21T08:24:53;98218.06;;;7.33;100.00
69257;BME280;56376;53.356;-1.748;2024-02-21T08:27:19;98207.66;;;7.33;100.00
69257;BME280;56376;53.356;-1.748;2024-02-21T08:29:44;98201.50;;;7.36;100.00
69257;BME280;56376;53.356;-1.748;2024-02-21T08:32:10;98187.59;;;7.37;100.00
69257;BME280;56376;53.356;-1.748;2024-02-21T08:34:36;98173.75;;;7.36;100.00
69257;BME280;56376;53.356;-1.748;2024-02-21T08:37:02;98165.97;;;7.36;100.00
69257;BME280;56376;53.356;-1.748;2024-02-21T08:39:27;98169.47;;;7.35;100.00
69257;BME280;56376;53.356;-1.748;2024-02-21T08:41:55;98163.44;;;7.35;100.00
69257;BME280;56376;53.356;-1.748;2024-02-21T08:44:27;98148.56;;;7.39;100.00
69257;BME280;56376;53.356;-1.748;2024-02-21T08:46:53;98141.75;;;7.36;100.00
69257;BME280;56376;53.356;-1.748;2024-02-21T08:49:18;98126.84;;;7.40;100.00
69257;BME280;56376;53.356;-1.748;2024-02-21T08:51:43;98126.78;;;7.41;100.00
69257;BME280;56376;53.356;-1.748;2024-02-21T08:54:09;98103.47;;;7.40;100.00
69257;BME280;56376;53.356;-1.748;2024-02-21T08:56:34;98114.56;;;7.43;100.00
69257;BME280;56376;53.356;-1.748;2024-02-21T08:59:01;98089.50;;;7.42;100.00
69257;BME280;56376;53.356;-1.748;2024-02-21T09:01:27;98098.06;;;7.44;100.00
69257;BME280;56376;53.356;-1.748;2024-02-21T09:03:52;98074.59;;;7.46;100.00
69257;BME280;56376;53.356;-1.748;2024-02-21T09:06:19;98075.59;;;7.43;100.00
69257;BME280;56376;53.356;-1.748;2024-02-21T09:08:45;98048.72;;;7.44;100.00
69257;BME280;56376;53.356;-1.748;2024-02-21T09:11:11;98043.31;;;7.49;100.00
69257;BME280;56376;53.356;-1.748;2024-02-21T09:13:37;98046.78;;;7.48;100.00
69257;BME280;56376;53.356;-1.748;2024-02-21T09:16:02;98038.94;;;7.49;100.00
69257;BME280;56376;53.356;-1.748;2024-02-21T09:18:29;98039.78;;;7.50;100.00
69257;BME280;56376;53.356;-1.748;2024-02-21T09:20:54;98039.56;;;7.54;100.00
69257;BME280;56376;53.356;-1.748;2024-02-21T09:23:20;98005.94;;;7.51;100.00
69257;BME280;56376;53.356;-1.748;2024-02-21T09:25:46;98010.06;;;7.55;100.00
69257;BME280;56376;53.356;-1.748;2024-02-21T09:28:11;98003.97;;;7.56;100.00
69257;BME280;56376;53.356;-1.748;2024-02-21T09:30:38;97986.59;;;7.57;100.00
69257;BME280;56376;53.356;-1.748;2024-02-21T09:33:04;97977.88;;;7.58;100.00
69257;BME280;56376;53.356;-1.748;2024-02-21T09:35:30;97973.69;;;7.55;100.00
69257;BME280;56376;53.356;-1.748;2024-02-21T09:37:56;97958.78;;;7.59;100.00
69257;BME280;56376;53.356;-1.748;2024-02-21T09:40:22;97939.63;;;7.62;100.00
69257;BME280;56376;53.356;-1.748;2024-02-21T09:42:48;97931.88;;;7.60;100.00
69257;BME280;56376;53.356;-1.748;2024-02-21T09:45:23;97935.25;;;7.62;100.00
69257;BME280;56376;53.356;-1.748;2024-02-21T09:50:45;97909.09;;;7.65;100.00
69257;BME280;56376;53.356;-1.748;2024-02-21T09:53:12;97906.50;;;7.65;100.00
69257;BME280;56376;53.356;-1.748;2024-02-21T09:55:43;97889.09;;;7.67;100.00
69257;BME280;56376;53.356;-1.748;2024-02-21T09:58:09;97870.81;;;7.69;100.00
69257;BME280;56376;53.356;-1.748;2024-02-21T10:00:37;97870.66;;;7.72;100.00
69257;BME280;56376;53.356;-1.748;2024-02-21T10:03:03;97858.50;;;7.72;100.00
69257;BME280;56376;53.356;-1.748;2024-02-21T10:05:35;97851.38;;;7.76;100.00
69257;BME280;56376;53.356;-1.748;2024-02-21T10:08:01;97854.75;;;7.78;100.00
69257;BME280;56376;53.356;-1.748;2024-02-21T10:10:27;97838.38;;;7.76;100.00
69257;BME280;56376;53.356;-1.748;2024-02-21T10:12:55;97831.19;;;7.81;100.00
69257;BME280;56376;53.356;-1.748;2024-02-21T10:15:22;97836.31;;;7.83;100.00
69257;BME280;56376;53.356;-1.748;2024-02-21T10:17:48;97828.44;;;7.84;100.00
69257;BME280;56376;53.356;-1.748;2024-02-21T10:20:14;97807.72;;;7.83;100.00
69257;BME280;56376;53.356;-1.748;2024-02-21T10:22:40;97784.25;;;7.84;100.00
69257;BME280;56376;53.356;-1.748;2024-02-21T10:25:09;97781.47;;;7.87;100.00
69257;BME280;56376;53.356;-1.748;2024-02-21T10:27:36;97784.00;;;7.89;100.00
69257;BME280;56376;53.356;-1.748;2024-02-21T10:30:02;97782.16;;;7.91;100.00
69257;BME280;56376;53.356;-1.748;2024-02-21T10:32:27;97772.69;;;7.90;100.00
69257;BME280;56376;53.356;-1.748;2024-02-21T10:35:03;97765.66;;;7.92;100.00
69257;BME280;56376;53.356;-1.748;2024-02-21T10:37:34;97754.31;;;7.93;100.00
69257;BME280;56376;53.356;-1.748;2024-02-21T10:40:00;97750.63;;;7.97;100.00
69257;BME280;56376;53.356;-1.748;2024-02-21T10:42:29;97763.53;;;7.98;100.00
69257;BME280;56376;53.356;-1.748;2024-02-21T10:45:00;97748.81;;;7.99;100.00
69257;BME280;56376;53.356;-1.748;2024-02-21T10:47:28;97734.88;;;8.00;100.00
69257;BME280;56376;53.356;-1.748;2024-02-21T10:50:02;97714.81;;;8.02;100.00
69257;BME280;56376;53.356;-1.748;2024-02-21T10:53:04;97721.50;;;8.06;100.00
69257;BME280;56376;53.356;-1.748;2024-02-21T10:55:49;97699.72;;;8.09;100.00
69257;BME280;56376;53.356;-1.748;2024-02-21T10:58:18;97706.44;;;8.13;100.00
69257;BME280;56376;53.356;-1.748;2024-02-21T11:00:44;97685.69;;;8.11;100.00
69257;BME280;56376;53.356;-1.748;2024-02-21T11:03:09;97683.84;;;8.13;100.00
69257;BME280;56376;53.356;-1.748;2024-02-21T11:05:36;97690.81;;;8.13;100.00
69257;BME280;56376;53.356;-1.748;2024-02-21T11:08:03;97668.25;;;8.13;100.00
69257;BME280;56376;53.356;-1.748;2024-02-21T11:10:31;97676.72;;;8.17;100.00
69257;BME280;56376;53.356;-1.748;2024-02-21T11:13:08;97681.06;;;8.16;100.00
69257;BME280;56376;53.356;-1.748;2024-02-21T11:15:34;97664.81;;;8.13;100.00
69257;BME280;56376;53.356;-1.748;2024-02-21T11:17:59;97656.69;;;8.19;100.00
69257;BME280;56376;53.356;-1.748;2024-02-21T11:20:32;97661.78;;;8.20;100.00
69257;BME280;56376;53.356;-1.748;2024-02-21T11:22:58;97659.94;;;8.22;100.00
69257;BME280;56376;53.356;-1.748;2024-02-21T11:25:24;97646.94;;;8.22;100.00
69257;BME280;56376;53.356;-1.748;2024-02-21T11:28:02;97644.34;;;8.22;100.00
69257;BME280;56376;53.356;-1.748;2024-02-21T11:30:31;97639.13;;;8.22;100.00
69257;BME280;56376;53.356;-1.748;2024-02-21T11:33:06;97639.72;;;8.28;100.00
69257;BME280;56376;53.356;-1.748;2024-02-21T11:35:34;97641.56;;;8.26;100.00
69257;BME280;56376;53.356;-1.748;2024-02-21T11:38:12;97638.69;;;8.30;100.00
69257;BME280;56376;53.356;-1.748;2024-02-21T11:40:45;97623.16;;;8.29;100.00
69257;BME280;56376;53.356;-1.748;2024-02-21T11:43:11;97605.72;;;8.31;100.00
69257;BME280;56376;53.356;-1.748;2024-02-21T11:45:37;97599.59;;;8.32;100.00
69257;BME280;56376;53.356;-1.748;2024-02-21T11:48:06;97592.38;;;8.37;100.00
69257;BME280;56376;53.356;-1.748;2024-02-21T11:50:32;97582.69;;;8.39;100.00
69257;BME280;56376;53.356;-1.748;2024-02-21T11:52:57;97578.41;;;8.38;100.00
69257;BME280;56376;53.356;-1.748;2024-02-21T11:55:23;97572.22;;;8.40;100.00
69257;BME280;56376;53.356;-1.748;2024-02-21T11:57:49;97561.00;;;8.40;100.00
69257;BME280;56376;53.356;-1.748;2024-02-21T12:00:18;97549.66;;;8.41;100.00
69257;BME280;56376;53.356;-1.748;2024-02-21T12:02:47;97549.38;;;8.45;100.00
69257;BME280;56376;53.356;-1.748;2024-02-21T12:05:13;97526.59;;;8.49;100.00
69257;BME280;56376;53.356;-1.748;2024-02-21T12:07:39;97545.56;;;8.51;100.00
69257;BME280;56376;53.356;-1.748;2024-02-21T12:10:09;97531.47;;;8.55;100.00
69257;BME280;56376;53.356;-1.748;2024-02-21T12:12:39;97510.56;;;8.57;100.00
69257;BME280;56376;53.356;-1.748;2024-02-21T12:15:05;97520.78;;;8.60;100.00
69257;BME280;56376;53.356;-1.748;2024-02-21T12:17:39;97512.16;;;8.59;100.00
69257;BME280;56376;53.356;-1.748;2024-02-21T12:20:05;97495.59;;;8.60;100.00
69257;BME280;56376;53.356;-1.748;2024-02-21T12:22:38;97493.81;;;8.61;100.00
69257;BME280;56376;53.356;-1.748;2024-02-21T12:25:16;97474.84;;;8.59;100.00
69257;BME280;56376;53.356;-1.748;2024-02-21T12:27:43;97472.16;;;8.60;100.00
69257;BME280;56376;53.356;-1.748;2024-02-21T12:30:09;97442.78;;;8.58;100.00
69257;BME280;56376;53.356;-1.748;2024-02-21T12:32:36;97458.13;;;8.63;100.00
69257;BME280;56376;53.356;-1.748;2024-02-21T12:35:01;97445.88;;;8.65;100.00
69257;BME280;56376;53.356;-1.748;2024-02-21T12:37:27;97443.25;;;8.65;100.00
69257;BME280;56376;53.356;-1.748;2024-02-21T12:39:53;97438.81;;;8.67;100.00
69257;BME280;56376;53.356;-1.748;2024-02-21T12:42:19;97429.09;;;8.69;100.00
69257;BME280;56376;53.356;-1.748;2024-02-21T12:44:44;97428.84;;;8.74;100.00
69257;BME280;56376;53.356;-1.748;2024-02-21T12:47:11;97410.41;;;8.77;100.00
69257;BME280;56376;53.356;-1.748;2024-02-21T12:49:37;97392.19;;;8.77;100.00